Time;durP1;ratioP1;P1;durP2;ratioP2;P2;SDS_P1;SDS_P2;PMS_P1;PMS_P2;Temp;Humidity;BMP_temperature;BMP_pressure;BME280_temperature;BME280_humidity;BME280_pressure;Samples;Min_cycle;Max_cycle;Signal;HPM_P1;HPM_P2
2022/05/31 05:03:22;;;;;;;9.07;4.60;;;10.20;92.80;;;;;;6169505;23;20043;-79
2022/05/31 05:05:48;;;;;;;11.23;5.15;;;10.40;92.80;;;;;;6166684;23;20011;-80
2022/05/31 05:08:19;;;;;;;8.30;4.78;;;10.40;92.50;;;;;;6143835;23;19993;-79
2022/05/31 05:10:47;;;;;;;9.52;4.90;;;10.50;92.40;;;;;;6144300;23;20007;-80
2022/05/31 05:13:29;;;;;;;10.77;4.85;;;10.60;92.10;;;;;;6173178;23;20012;-79
2022/05/31 05:16:15;;;;;;;8.90;4.40;;;10.70;91.10;;;;;;6172766;23;20024;-79
2022/05/31 05:18:44;;;;;;;9.65;5.03;;;10.80;91.60;;;;;;6169378;23;20283;-78
2022/05/31 05:21:23;;;;;;;7.95;4.63;;;10.90;91.60;;;;;;6168976;23;19997;-78
2022/05/31 05:23:51;;;;;;;8.57;5.13;;;11.00;91.00;;;;;;6169080;23;20035;-79
2022/05/31 05:26:58;;;;;;;8.25;4.45;;;11.20;91.30;;;;;;6168985;23;20001;-79
2022/05/31 05:33:03;;;;;;;;;;;11.50;90.40;;;;;;6194915;23;20203;-77
2022/05/31 05:35:34;;;;;;;8.35;4.60;;;11.70;90.20;;;;;;6168860;23;20038;-77
2022/05/31 05:38:08;;;;;;;12.82;5.30;;;11.70;89.80;;;;;;6165920;23;20290;-78
2022/05/31 05:40:51;;;;;;;10.90;5.43;;;11.90;89.20;;;;;;6168523;23;20005;-78
2022/05/31 05:43:21;;;;;;;10.20;5.30;;;12.00;88.70;;;;;;6144600;23;20009;-79
2022/05/31 05:49:36;;;;;;;9.43;5.25;;;12.40;88.30;;;;;;6169612;23;20194;-79
2022/05/31 05:52:17;;;;;;;9.10;5.30;;;12.70;86.70;;;;;;6169020;23;20031;-78
2022/05/31 05:58:55;;;;;;;14.50;5.93;;;12.80;86.30;;;;;;6194960;23;20090;-77
2022/05/31 06:05:24;;;;;;;12.73;6.38;;;12.80;86.60;;;;;;6194506;23;20015;-78
2022/05/31 06:07:57;;;;;;;11.52;5.65;;;12.90;86.30;;;;;;6168671;23;20060;-79
2022/05/31 06:10:29;;;;;;;12.70;6.00;;;13.30;85.70;;;;;;6166896;23;20064;-77
2022/05/31 06:13:06;;;;;;;10.40;5.93;;;13.70;84.30;;;;;;6193116;23;20005;-77
2022/05/31 06:15:35;;;;;;;12.07;5.18;;;14.20;83.10;;;;;;6166976;23;20295;-78
2022/05/31 06:18:10;;;;;;;13.40;5.53;;;14.40;81.60;;;;;;6167411;23;20091;-77
2022/05/31 06:20:36;;;;;;;10.75;4.97;;;14.50;81.40;;;;;;6166752;23;20009;-80
2022/05/31 06:23:01;;;;;;;12.25;4.57;;;14.70;80.90;;;;;;6165901;23;20005;-80
2022/05/31 06:25:27;;;;;;;11.07;5.53;;;14.80;80.20;;;;;;6167078;23;19997;-79
2022/05/31 06:28:32;;;;;;;14.35;5.57;;;14.90;80.50;;;;;;6159120;23;20032;-79
2022/05/31 06:30:58;;;;;;;11.15;5.88;;;15.20;79.50;;;;;;6195121;23;20016;-76
2022/05/31 06:33:24;;;;;;;13.13;7.25;;;15.30;80.00;;;;;;6193408;23;20338;-80
2022/05/31 06:35:52;;;;;;;13.82;6.45;;;15.30;79.30;;;;;;6166668;23;20290;-80
2022/05/31 06:38:17;;;;;;;15.63;6.53;;;15.20;78.90;;;;;;6193650;23;20017;-77
2022/05/31 06:40:44;;;;;;;12.20;6.20;;;15.00;78.80;;;;;;6142590;23;20072;-78
2022/05/31 06:43:29;;;;;;;14.07;6.32;;;15.20;79.00;;;;;;6171053;23;20313;-78
2022/05/31 06:46:27;;;;;;;12.57;5.75;;;15.40;78.80;;;;;;6143561;23;20017;-78
2022/05/31 06:49:19;;;;;;;13.13;6.22;;;15.80;77.80;;;;;;6132141;23;20064;-78
2022/05/31 06:57:56;;;;;;;12.75;5.82;;;16.50;75.50;;;;;;6192895;23;20044;-77
2022/05/31 07:00:32;;;;;;;13.85;5.93;;;16.60;75.10;;;;;;6144046;23;20023;-78
2022/05/31 07:02:59;;;;;;;10.32;5.40;;;16.60;75.20;;;;;;6158236;23;20245;-78
2022/05/31 07:05:31;;;;;;;10.35;5.63;;;16.80;75.30;;;;;;6197212;23;20005;-78
2022/05/31 07:07:58;;;;;;;12.88;4.95;;;16.80;74.80;;;;;;6196385;23;20028;-80
2022/05/31 07:10:43;;;;;;;12.98;5.18;;;16.90;74.30;;;;;;6223939;23;20048;-80
2022/05/31 07:13:31;;;;;;;12.05;5.15;;;16.90;74.00;;;;;;6223537;23;20064;-79
2022/05/31 07:16:00;;;;;;;;;;;16.90;74.20;;;;;;6222720;23;20016;-79
2022/05/31 07:18:46;;;;;;;11.10;4.93;;;17.00;74.30;;;;;;6222829;23;19900;-79
2022/05/31 07:21:13;;;;;;;9.43;5.00;;;17.20;74.00;;;;;;6171459;23;20286;-79
2022/05/31 07:23:40;;;;;;;10.15;4.90;;;17.20;73.70;;;;;;6197194;23;20000;-80
2022/05/31 07:26:08;;;;;;;12.10;4.43;;;17.40;74.10;;;;;;6223127;23;20009;-79
2022/05/31 07:28:34;;;;;;;6.13;3.63;;;17.60;74.00;;;;;;6196777;23;20000;-79
2022/05/31 07:31:01;;;;;;;8.68;3.05;;;17.70;73.30;;;;;;6195515;23;20028;-80
2022/05/31 07:33:29;;;;;;;7.18;3.03;;;17.90;72.90;;;;;;6196767;23;20015;-79
2022/05/31 07:35:57;;;;;;;7.22;2.67;;;18.10;72.60;;;;;;6196323;23;20004;-79
2022/05/31 07:38:26;;;;;;;8.30;3.10;;;18.10;72.70;;;;;;6196879;23;20011;-79
2022/05/31 07:40:53;;;;;;;6.07;2.65;;;18.20;71.80;;;;;;6197243;23;20060;-79
2022/05/31 07:43:19;;;;;;;7.55;2.72;;;18.50;70.60;;;;;;6222905;23;20043;-79
2022/05/31 07:45:46;;;;;;;5.07;2.55;;;18.70;70.10;;;;;;6171757;23;20068;-79
2022/05/31 07:48:14;;;;;;;5.18;2.10;;;19.00;69.60;;;;;;6196095;23;20031;-78
2022/05/31 07:50:41;;;;;;;5.00;1.90;;;19.20;69.00;;;;;;6172463;23;20012;-78
2022/05/31 07:53:26;;;;;;;5.15;1.83;;;19.30;68.20;;;;;;6223523;23;20312;-79
2022/05/31 07:56:19;;;;;;;3.97;1.85;;;19.30;67.80;;;;;;6189998;23;20063;-78
2022/05/31 07:59:04;;;;;;;5.05;1.92;;;19.20;67.70;;;;;;6199837;23;20015;-79
2022/05/31 08:01:48;;;;;;;5.32;1.98;;;19.30;67.70;;;;;;6222955;23;20329;-79
2022/05/31 08:04:32;;;;;;;4.15;1.60;;;19.10;67.90;;;;;;6176221;23;20007;-79
2022/05/31 08:06:59;;;;;;;5.82;1.67;;;19.20;68.20;;;;;;6197415;23;20004;-79
2022/05/31 08:09:26;;;;;;;5.97;1.92;;;19.30;68.00;;;;;;6196899;23;20008;-78
2022/05/31 08:11:52;;;;;;;4.43;1.58;;;19.40;67.60;;;;;;6223395;23;20078;-78
2022/05/31 08:14:17;;;;;;;5.18;1.67;;;19.60;67.70;;;;;;6223143;23;20004;-79
2022/05/31 08:16:43;;;;;;;9.32;2.80;;;19.80;66.80;;;;;;6222748;23;20207;-77
2022/05/31 08:19:09;;;;;;;6.35;2.15;;;19.80;67.40;;;;;;6195731;23;20020;-80
2022/05/31 08:21:34;;;;;;;4.70;2.10;;;19.70;67.60;;;;;;6196473;23;20005;-78
2022/05/31 08:24:03;;;;;;;7.25;2.20;;;19.60;68.10;;;;;;6196121;23;20008;-78
2022/05/31 08:26:29;;;;;;;4.65;2.38;;;19.60;67.70;;;;;;6197071;23;20009;-81
2022/05/31 08:28:55;;;;;;;6.72;2.33;;;19.50;68.50;;;;;;6224802;23;20010;-79
2022/05/31 08:31:24;;;;;;;5.30;1.88;;;19.60;68.00;;;;;;6197983;23;20032;-78
2022/05/31 08:33:50;;;;;;;5.93;2.28;;;19.70;68.80;;;;;;6197263;23;20015;-79
2022/05/31 08:36:16;;;;;;;4.90;1.40;;;19.70;67.20;;;;;;6197258;23;19997;-79
2022/05/31 08:38:42;;;;;;;2.92;0.70;;;19.50;66.90;;;;;;6197682;23;20011;-80
2022/05/31 08:41:28;;;;;;;3.17;1.00;;;19.60;66.70;;;;;;6172313;23;20005;-78
2022/05/31 08:44:03;;;;;;;3.75;0.85;;;19.90;67.30;;;;;;6174139;23;20076;-79
2022/05/31 08:46:47;;;;;;;5.00;1.17;;;20.20;66.30;;;;;;6199112;23;20009;-79
2022/05/31 08:49:16;;;;;;;3.53;0.90;;;20.40;65.50;;;;;;6198568;23;20068;-79
2022/05/31 08:52:04;;;;;;;3.50;1.20;;;20.50;64.90;;;;;;6199178;23;20000;-79
2022/05/31 09:04:31;;;;;;;2.78;1.13;;;21.60;62.50;;;;;;6224574;23;20020;-78
2022/05/31 09:07:06;;;;;;;2.25;0.80;;;22.00;61.40;;;;;;6225399;23;20020;-78
2022/05/31 09:09:56;;;;;;;2.08;0.73;;;22.40;60.80;;;;;;6174415;23;20060;-78
2022/05/31 09:12:33;;;;;;;3.78;0.90;;;22.50;59.30;;;;;;6198648;23;19997;-77
2022/05/31 09:15:07;;;;;;;2.42;0.90;;;22.40;59.60;;;;;;6225672;23;20003;-77
2022/05/31 09:18:08;;;;;;;2.90;1.23;;;22.20;60.00;;;;;;6173887;23;20005;-79
2022/05/31 09:20:48;;;;;;;2.20;0.90;;;22.20;60.00;;;;;;6224822;23;20000;-78
2022/05/31 09:23:19;;;;;;;2.60;0.90;;;22.40;59.20;;;;;;6224312;23;20036;-77
2022/05/31 09:25:50;;;;;;;2.45;0.90;;;22.50;59.40;;;;;;6225505;23;20025;-79
2022/05/31 09:28:42;;;;;;;3.13;0.80;;;22.60;59.10;;;;;;6198103;23;20024;-78
2022/05/31 09:31:26;;;;;;;2.00;0.80;;;22.60;59.00;;;;;;6197186;23;20317;-78
2022/05/31 09:39:05;;;;;;;2.03;0.70;;;22.80;58.90;;;;;;6049907;23;20062;-77
2022/05/31 09:42:33;;;;;;;3.22;0.90;;;22.90;59.10;;;;;;6035847;23;20012;-77
2022/05/31 09:45:11;;;;;;;3.28;1.20;;;23.10;58.60;;;;;;6018154;23;20008;-78
2022/05/31 09:47:37;;;;;;;;;;;23.50;57.60;;;;;;5995211;23;20023;-78
2022/05/31 09:50:03;;;;;;;3.50;0.85;;;24.00;57.80;;;;;;6017973;23;19905;-78
2022/05/31 10:00:09;;;;;;;2.42;0.70;;;24.20;57.70;;;;;;6017749;23;20340;-78
2022/05/31 10:03:31;;;;;;;6.47;0.93;;;24.60;56.70;;;;;;6005572;23;20049;-78
2022/05/31 10:06:06;;;;;;;2.65;0.80;;;24.90;55.60;;;;;;5995380;24;20073;-78
2022/05/31 10:08:35;;;;;;;1.77;0.70;;;24.90;55.10;;;;;;5968006;24;20085;-77
2022/05/31 10:15:30;;;;;;;3.83;1.25;;;24.80;55.60;;;;;;5910529;24;20044;-77
2022/05/31 10:18:39;;;;;;;1.90;0.73;;;25.40;56.20;;;;;;5954041;23;20052;-80
2022/05/31 10:21:09;;;;;;;3.88;0.98;;;25.60;55.60;;;;;;6009231;23;20186;-78
2022/05/31 10:24:39;;;;;;;2.45;0.88;;;25.70;55.30;;;;;;6098390;23;20018;-77
2022/05/31 10:27:27;;;;;;;4.13;1.20;;;25.80;54.10;;;;;;6103748;23;20081;-78
2022/05/31 10:30:05;;;;;;;3.03;1.10;;;26.00;54.30;;;;;;6069605;23;20025;-78
2022/05/31 10:33:07;;;;;;;2.75;1.10;;;25.90;53.60;;;;;;6082387;23;20021;-77
2022/05/31 10:35:37;;;;;;;4.00;0.98;;;26.00;53.50;;;;;;6079022;23;20010;-78
2022/05/31 10:38:28;;;;;;;3.60;1.30;;;26.00;52.90;;;;;;6102991;23;20033;-77
2022/05/31 10:41:04;;;;;;;3.78;1.00;;;26.00;52.70;;;;;;6103092;23;20271;-79
2022/05/31 10:43:49;;;;;;;2.47;0.98;;;26.00;53.50;;;;;;6079224;23;20020;-78
2022/05/31 10:46:17;;;;;;;2.50;0.82;;;25.80;53.40;;;;;;6102254;23;20014;-77
2022/05/31 10:48:56;;;;;;;3.03;0.82;;;25.80;52.30;;;;;;6123592;23;20005;-77
2022/05/31 10:51:57;;;;;;;3.30;1.30;;;25.60;53.20;;;;;;6195250;23;20007;-79
2022/05/31 10:54:54;;;;;;;3.67;1.60;;;25.50;55.10;;;;;;6177789;23;20005;-79
2022/05/31 10:57:58;;;;;;;2.60;1.17;;;25.00;55.70;;;;;;6167058;23;20005;-78
2022/05/31 11:00:32;;;;;;;2.67;1.48;;;24.70;56.60;;;;;;6193130;23;20195;-79
2022/05/31 11:03:07;;;;;;;4.55;1.30;;;24.80;55.50;;;;;;6193927;23;20218;-78
2022/05/31 11:06:00;;;;;;;5.38;1.42;;;24.70;56.60;;;;;;6193937;23;20004;-78
2022/05/31 11:11:45;;;;;;;3.17;1.30;;;25.50;56.40;;;;;;6193838;23;20029;-79
2022/05/31 11:14:36;;;;;;;2.95;1.48;;;25.90;55.60;;;;;;6193437;23;20005;-79
2022/05/31 11:17:46;;;;;;;3.08;1.38;;;25.80;54.20;;;;;;6192848;23;20363;-78
2022/05/31 11:20:26;;;;;;;3.38;1.20;;;25.50;54.70;;;;;;6194445;23;20082;-77
2022/05/31 11:23:13;;;;;;;2.95;1.40;;;25.60;54.90;;;;;;6193795;23;20065;-78
2022/05/31 11:25:54;;;;;;;4.50;1.60;;;25.70;54.50;;;;;;6194089;23;20001;-78
2022/05/31 11:31:30;;;;;;;3.10;1.27;;;26.10;53.50;;;;;;6192750;23;20016;-77
2022/05/31 11:34:40;;;;;;;3.95;1.20;;;26.30;52.50;;;;;;6162698;23;20001;-78
2022/05/31 11:37:36;;;;;;;3.85;1.25;;;26.80;51.00;;;;;;6194284;23;19997;-78
2022/05/31 11:44:31;;;;;;;;;;;28.00;50.10;;;;;;6194721;23;20024;-79
2022/05/31 11:47:29;;;;;;;3.97;1.05;;;29.30;48.90;;;;;;6191826;23;19935;-79
2022/05/31 11:50:22;;;;;;;2.97;0.80;;;29.90;47.30;;;;;;6193826;23;20013;-79
2022/05/31 11:52:50;;;;;;;3.67;0.93;;;30.30;46.30;;;;;;6193887;23;20308;-79
2022/05/31 11:55:28;;;;;;;6.30;1.20;;;30.80;45.70;;;;;;6142682;23;20005;-78
2022/05/31 11:58:15;;;;;;;3.63;0.90;;;31.10;44.50;;;;;;6194292;23;20008;-78
2022/05/31 12:01:23;;;;;;;2.13;0.82;;;31.30;44.60;;;;;;6142609;23;20294;-78
2022/05/31 12:04:14;;;;;;;5.95;0.80;;;31.50;44.30;;;;;;6071638;23;20014;-78
2022/05/31 12:07:07;;;;;;;2.60;0.80;;;32.30;44.20;;;;;;6074658;23;20308;-78
2022/05/31 12:09:46;;;;;;;2.38;0.70;;;33.10;42.90;;;;;;6026040;23;20232;-78
2022/05/31 12:12:30;;;;;;;4.28;1.13;;;33.70;42.80;;;;;;6074038;23;20018;-79
2022/05/31 12:15:27;;;;;;;2.42;0.93;;;34.30;42.20;;;;;;6072632;23;20007;-79
2022/05/31 12:18:03;;;;;;;2.60;0.80;;;35.30;42.00;;;;;;6048623;23;20030;-80
2022/05/31 12:24:43;;;;;;;4.80;1.02;;;35.50;40.80;;;;;;6072772;23;20018;-80
2022/05/31 12:27:24;;;;;;;3.65;0.73;;;33.90;41.60;;;;;;6073078;23;20170;-80
2022/05/31 12:30:19;;;;;;;2.72;0.93;;;33.40;42.20;;;;;;6025035;23;20178;-79
2022/05/31 12:32:48;;;;;;;3.63;1.05;;;33.80;41.50;;;;;;6072667;23;20350;-79
2022/05/31 12:35:51;;;;;;;2.50;0.80;;;33.20;42.00;;;;;;6162937;23;20001;-80
2022/05/31 12:38:22;;;;;;;3.33;0.90;;;32.70;43.20;;;;;;6166100;23;20008;-79
2022/05/31 12:40:54;;;;;;;2.17;0.70;;;31.60;43.50;;;;;;6192287;23;20024;-79
2022/05/31 12:43:51;;;;;;;3.03;0.90;;;31.90;43.60;;;;;;6191865;23;20036;-77
2022/05/31 12:46:35;;;;;;;2.38;0.60;;;32.60;42.80;;;;;;6191119;23;20009;-81
2022/05/31 12:56:56;;;;;;;2.28;0.80;;;37.70;40.10;;;;;;6182156;23;20015;-80
2022/05/31 13:02:37;;;;;;;2.33;0.70;;;38.00;38.80;;;;;;6178705;23;20020;-80
2022/05/31 13:05:23;;;;;;;2.10;0.80;;;39.20;38.30;;;;;;6198074;23;20001;-80
2022/05/31 13:07:49;;;;;;;1.47;0.50;;;39.50;37.90;;;;;;6222678;23;20275;-81
2022/05/31 13:10:39;;;;;;;2.65;0.55;;;39.70;38.00;;;;;;6195322;23;20044;-81
2022/05/31 13:22:08;;;;;;;2.90;0.80;;;36.10;39.00;;;;;;6219855;23;20009;-81
2022/05/31 13:24:43;;;;;;;2.20;0.60;;;35.20;39.50;;;;;;6221849;23;20008;-80
2022/05/31 13:27:10;;;;;;;2.72;0.90;;;34.50;40.30;;;;;;6196525;23;20298;-79
2022/05/31 13:29:36;;;;;;;3.22;0.82;;;35.00;40.00;;;;;;6195070;23;20287;-80
2022/05/31 13:32:13;;;;;;;2.22;0.55;;;34.70;40.00;;;;;;6223634;23;20032;-80
2022/05/31 13:34:52;;;;;;;2.38;0.80;;;34.90;40.10;;;;;;6224187;23;20005;-81
2022/05/31 13:37:20;;;;;;;1.88;0.70;;;35.10;40.00;;;;;;6196732;23;20001;-79
2022/05/31 13:39:48;;;;;;;2.38;0.70;;;35.60;39.20;;;;;;6197573;23;20032;-79
2022/05/31 13:42:30;;;;;;;3.05;0.73;;;35.20;39.20;;;;;;6224036;23;20005;-78
2022/05/31 13:45:06;;;;;;;3.45;0.80;;;34.40;39.60;;;;;;6223681;23;20011;-79
2022/05/31 13:47:45;;;;;;;3.88;1.00;;;33.40;40.50;;;;;;6222687;23;20015;-78
2022/05/31 13:50:47;;;;;;;3.13;1.00;;;33.40;40.70;;;;;;6197173;23;20004;-78
2022/05/31 13:57:19;;;;;;;2.80;0.93;;;33.90;40.00;;;;;;6223880;23;20098;-79
2022/05/31 14:00:07;;;;;;;3.60;0.85;;;33.30;40.90;;;;;;6073518;23;20064;-79
2022/05/31 14:03:00;;;;;;;4.60;0.90;;;32.90;40.80;;;;;;6072874;23;20055;-80
2022/05/31 14:06:00;;;;;;;2.75;0.70;;;32.90;41.20;;;;;;6075833;23;20296;-78
2022/05/31 14:08:54;;;;;;;3.78;1.02;;;33.00;41.20;;;;;;6047563;23;20074;-80
2022/05/31 14:12:08;;;;;;;1.75;0.70;;;34.50;40.80;;;;;;6017664;23;20030;-79
2022/05/31 14:14:46;;;;;;;5.43;0.70;;;35.60;39.40;;;;;;6023063;23;20174;-79
2022/05/31 14:17:39;;;;;;;3.08;0.70;;;36.10;39.10;;;;;;6001819;23;20026;-79
2022/05/31 14:20:59;;;;;;;2.10;0.90;;;36.40;39.00;;;;;;6045413;23;20003;-77
2022/05/31 14:27:05;;;;;;;2.03;0.82;;;37.60;38.20;;;;;;6022312;23;20026;-78
2022/05/31 14:29:37;;;;;;;2.08;0.75;;;37.70;38.30;;;;;;6044484;23;20033;-79
2022/05/31 14:32:25;;;;;;;2.40;0.68;;;38.70;37.70;;;;;;6045094;23;20011;-77
2022/05/31 14:34:55;;;;;;;2.30;0.80;;;39.40;37.40;;;;;;6044746;23;20363;-78
2022/05/31 14:37:51;;;;;;;3.80;0.90;;;39.10;37.50;;;;;;6065176;23;20003;-78
2022/05/31 14:40:38;;;;;;;2.72;0.60;;;38.50;37.60;;;;;;6047460;23;20002;-78
2022/05/31 14:43:07;;;;;;;1.88;0.65;;;39.00;37.70;;;;;;6075347;23;20022;-78
2022/05/31 14:45:42;;;;;;;4.13;0.70;;;38.10;37.50;;;;;;6167237;23;20008;-80
2022/05/31 14:48:27;;;;;;;2.38;0.75;;;36.80;37.80;;;;;;6225301;23;20005;-80
2022/05/31 14:50:57;;;;;;;4.05;0.90;;;35.60;38.70;;;;;;6225139;23;19997;-80
2022/05/31 14:53:23;;;;;;;4.35;1.15;;;35.50;38.80;;;;;;6224729;23;20000;-80
2022/05/31 15:00:14;;;;;;;1.70;0.55;;;32.40;39.90;;;;;;6224396;23;20055;-80
2022/05/31 15:02:40;;;;;;;1.73;0.80;;;31.00;41.50;;;;;;6222919;23;20021;-80
2022/05/31 15:05:09;;;;;;;2.95;0.82;;;30.00;42.80;;;;;;6198101;23;20044;-79
2022/05/31 15:08:07;;;;;;;4.95;1.10;;;29.10;43.40;;;;;;6223598;23;20007;-80
2022/05/31 15:10:51;;;;;;;2.47;0.77;;;28.00;44.70;;;;;;6142453;23;20005;-79
2022/05/31 15:18:59;;;;;;;3.88;1.05;;;26.60;45.80;;;;;;6197644;23;20009;-79
2022/05/31 15:25:25;;;;;;;3.88;0.93;;;25.60;46.90;;;;;;6223677;23;20012;-79
2022/05/31 15:27:52;;;;;;;6.03;0.77;;;25.20;47.80;;;;;;6172475;23;20000;-78
2022/05/31 15:30:19;;;;;;;3.55;1.38;;;25.00;47.40;;;;;;6173782;23;20005;-81
2022/05/31 15:32:45;;;;;;;3.58;1.00;;;24.90;47.80;;;;;;6173514;23;20035;-81
2022/05/31 15:35:16;;;;;;;2.80;0.77;;;24.90;48.00;;;;;;6173511;23;20008;-79
2022/05/31 15:37:43;;;;;;;2.58;0.73;;;24.70;48.10;;;;;;6171755;23;20004;-80
2022/05/31 15:40:14;;;;;;;3.38;0.90;;;24.50;47.90;;;;;;6172880;23;20004;-80
2022/05/31 15:46:16;;;;;;;4.22;1.10;;;24.50;48.60;;;;;;6224048;23;20031;-79
2022/05/31 15:48:42;;;;;;;7.15;1.48;;;24.60;48.50;;;;;;6196710;23;20358;-79
2022/05/31 16:02:42;;;;;;;3.83;1.00;;;25.10;48.00;;;;;;6227467;23;20012;-80
2022/05/31 16:08:50;;;;;;;2.30;1.00;;;25.50;48.00;;;;;;6196399;23;20190;-80
2022/05/31 16:11:16;;;;;;;2.67;0.90;;;25.60;47.90;;;;;;6172831;23;20000;-79
2022/05/31 16:17:37;;;;;;;2.92;0.90;;;25.50;47.30;;;;;;6222551;23;20024;-79
2022/05/31 16:20:05;;;;;;;2.80;0.73;;;25.30;48.00;;;;;;6174564;23;20031;-80
2022/05/31 16:22:37;;;;;;;3.80;0.73;;;25.30;47.00;;;;;;6171752;23;19997;-79
2022/05/31 16:25:38;;;;;;;3.75;0.80;;;25.00;47.40;;;;;;6196941;23;20233;-80
2022/05/31 16:28:05;;;;;;;2.42;0.88;;;24.80;47.80;;;;;;6073723;23;20007;-80
2022/05/31 16:30:46;;;;;;;3.75;1.10;;;24.90;48.20;;;;;;6147564;23;20009;-79
2022/05/31 16:45:15;;;;;;;3.35;0.93;;;24.80;47.90;;;;;;6223370;23;20059;-79
2022/05/31 16:51:42;;;;;;;4.15;0.88;;;24.40;48.50;;;;;;6222797;23;20019;-80
2022/05/31 16:54:30;;;;;;;4.22;1.50;;;24.10;49.30;;;;;;6223637;23;20012;-80
2022/05/31 16:57:00;;;;;;;3.38;1.10;;;24.20;48.90;;;;;;6197317;23;19997;-82
2022/05/31 17:03:20;;;;;;;4.18;1.35;;;24.10;49.40;;;;;;6222136;23;20044;-81
2022/05/31 17:05:47;;;;;;;4.32;1.10;;;24.10;49.20;;;;;;6197730;23;20008;-80
2022/05/31 17:16:53;;;;;;;3.55;1.20;;;23.60;52.90;;;;;;6198000;23;20043;-83
2022/05/31 17:19:19;;;;;;;3.22;1.30;;;23.50;53.90;;;;;;6175364;23;20011;-79
2022/05/31 17:22:01;;;;;;;2.40;1.02;;;23.10;53.70;;;;;;6231731;23;20224;-79
2022/05/31 17:25:00;;;;;;;2.47;1.13;;;22.90;53.80;;;;;;6229193;23;20237;-78
2022/05/31 17:27:26;;;;;;;;;;;22.60;54.50;;;;;;6234215;23;20048;-79
2022/05/31 17:29:57;;;;;;;4.38;1.38;;;22.40;56.00;;;;;;6173631;23;19908;-78
2022/05/31 17:32:32;;;;;;;4.60;1.27;;;22.20;57.50;;;;;;6125330;23;20203;-80
2022/05/31 17:35:02;;;;;;;3.80;1.38;;;21.90;58.10;;;;;;6139530;23;20012;-78
2022/05/31 17:37:37;;;;;;;2.67;1.35;;;21.70;58.40;;;;;;6165228;23;20001;-79
2022/05/31 17:40:25;;;;;;;4.18;1.40;;;21.70;58.00;;;;;;6144720;23;20007;-79
2022/05/31 17:42:50;;;;;;;4.75;1.70;;;21.50;59.70;;;;;;6154261;23;20016;-79
2022/05/31 17:45:26;;;;;;;2.85;1.30;;;21.30;61.10;;;;;;6163005;23;20252;-79
2022/05/31 17:48:54;;;;;;;4.35;2.03;;;21.20;60.50;;;;;;6143687;23;20080;-79
2022/05/31 17:51:22;;;;;;;5.22;2.63;;;21.00;60.00;;;;;;6046826;23;20011;-79
2022/05/31 17:54:58;;;;;;;5.80;2.25;;;20.80;64.00;;;;;;6046748;23;20011;-83
2022/05/31 17:58:29;;;;;;;6.97;2.65;;;20.70;67.50;;;;;;6089168;23;20028;-81
2022/05/31 18:01:53;;;;;;;6.88;2.00;;;20.60;71.40;;;;;;6205617;23;20020;-82
2022/05/31 18:04:22;;;;;;;4.10;2.22;;;20.60;69.80;;;;;;6075410;23;20018;-78
2022/05/31 18:06:55;;;;;;;7.35;2.28;;;20.60;72.90;;;;;;6074644;23;20207;-80
2022/05/31 18:10:03;;;;;;;5.35;2.00;;;20.70;75.80;;;;;;6074943;23;20003;-79
2022/05/31 18:12:32;;;;;;;5.78;2.10;;;21.70;71.50;;;;;;6073901;23;20007;-79
2022/05/31 18:18:57;;;;;;;3.90;2.17;;;23.10;68.20;;;;;;6040318;23;20018;-79
2022/05/31 18:21:55;;;;;;;6.57;1.90;;;22.80;65.50;;;;;;6071968;23;20261;-79
2022/05/31 18:24:58;;;;;;;5.85;1.50;;;22.90;67.00;;;;;;6074689;23;20071;-78
2022/05/31 18:27:24;;;;;;;3.80;1.60;;;23.00;63.50;;;;;;6050504;23;20006;-79
2022/05/31 18:30:30;;;;;;;3.33;1.33;;;22.80;65.80;;;;;;6074675;23;20208;-79
2022/05/31 18:33:45;;;;;;;3.47;1.67;;;22.40;62.00;;;;;;6073526;23;20019;-78
2022/05/31 18:36:26;;;;;;;4.30;1.63;;;22.00;62.90;;;;;;6074168;23;20006;-78
2022/05/31 18:42:25;;;;;;;4.68;1.50;;;21.60;68.10;;;;;;6196227;23;20232;-79
2022/05/31 18:51:55;;;;;;;5.75;2.42;;;20.80;70.90;;;;;;6223561;23;20034;-79
2022/05/31 18:54:20;;;;;;;3.55;1.50;;;20.40;73.40;;;;;;6223877;23;20311;-78
2022/05/31 18:57:12;;;;;;;4.78;1.90;;;20.20;71.60;;;;;;6201835;22;20067;-79
2022/05/31 19:00:05;;;;;;;4.47;1.60;;;20.00;72.00;;;;;;6196722;23;20004;-79
2022/05/31 19:03:11;;;;;;;3.33;1.50;;;20.00;72.60;;;;;;6223020;23;20077;-79
2022/05/31 19:05:43;;;;;;;4.82;1.85;;;19.90;70.70;;;;;;6130149;23;20026;-80
2022/05/31 19:08:09;;;;;;;4.57;1.85;;;19.60;70.50;;;;;;6131652;23;20014;-78
2022/05/31 19:10:37;;;;;;;3.63;1.63;;;19.40;71.20;;;;;;6130882;23;20030;-78
2022/05/31 19:13:10;;;;;;;4.45;1.90;;;19.10;71.70;;;;;;6107083;23;20010;-78
2022/05/31 19:15:37;;;;;;;3.92;1.73;;;18.90;72.30;;;;;;6130643;23;20013;-78
2022/05/31 19:18:11;;;;;;;5.20;1.98;;;18.90;72.10;;;;;;6131662;23;20010;-77
2022/05/31 19:20:38;;;;;;;3.03;1.55;;;18.90;72.20;;;;;;6131655;23;20049;-79
2022/05/31 19:23:06;;;;;;;6.57;2.60;;;18.70;70.40;;;;;;6133650;23;20061;-78
2022/05/31 19:25:33;;;;;;;5.07;2.67;;;18.60;74.10;;;;;;6131993;23;20006;-78
2022/05/31 19:27:59;;;;;;;5.82;2.60;;;18.50;76.50;;;;;;6132092;23;19998;-80
2022/05/31 19:30:27;;;;;;;5.63;2.15;;;18.40;77.60;;;;;;6133200;23;20297;-79
2022/05/31 19:32:57;;;;;;;5.88;2.92;;;18.40;78.00;;;;;;6132082;23;20466;-79
2022/05/31 19:35:24;;;;;;;7.03;4.05;;;18.30;78.50;;;;;;6132120;23;20010;-79
2022/05/31 19:38:40;;;;;;;9.15;4.18;;;18.10;78.40;;;;;;6224843;23;20000;-79
2022/05/31 19:41:07;;;;;;;7.80;4.30;;;18.10;78.50;;;;;;6224480;23;19997;-78
2022/05/31 19:43:35;;;;;;;7.78;4.10;;;18.00;78.90;;;;;;6224242;23;20000;-79
2022/05/31 19:46:02;;;;;;;7.63;4.05;;;17.90;79.40;;;;;;6223166;23;20016;-78
2022/05/31 19:48:28;;;;;;;12.88;3.60;;;17.80;80.40;;;;;;6223661;23;20019;-78
2022/05/31 19:50:56;;;;;;;6.40;3.33;;;17.70;79.90;;;;;;6196451;23;20000;-78
2022/05/31 19:53:24;;;;;;;6.75;3.38;;;17.60;81.60;;;;;;6223404;23;19993;-79
2022/05/31 19:55:52;;;;;;;5.32;3.05;;;17.50;83.40;;;;;;6196442;23;20056;-79
2022/05/31 19:58:18;;;;;;;4.47;2.60;;;17.40;83.80;;;;;;6222916;23;20047;-78
2022/05/31 20:00:48;;;;;;;8.23;3.25;;;17.30;83.60;;;;;;6221450;23;20004;-79
2022/05/31 20:10:04;;;;;;;6.20;3.00;;;17.20;82.80;;;;;;6222287;23;20004;-79
2022/05/31 20:16:37;;;;;;;5.90;3.10;;;17.30;81.10;;;;;;6206653;23;20019;-80
2022/05/31 20:19:20;;;;;;;9.23;3.22;;;17.20;82.10;;;;;;6196055;23;20012;-79
2022/05/31 20:21:51;;;;;;;8.38;3.22;;;17.00;83.30;;;;;;6170963;23;20056;-79
2022/05/31 20:24:25;;;;;;;5.15;2.75;;;16.90;84.00;;;;;;6222267;23;20016;-80
2022/05/31 20:26:59;;;;;;;6.35;3.03;;;16.80;82.80;;;;;;6196124;23;20376;-79
2022/05/31 20:29:28;;;;;;;4.07;2.70;;;16.80;83.10;;;;;;6222737;23;20027;-80
2022/05/31 20:31:57;;;;;;;4.20;2.80;;;16.70;82.90;;;;;;6221839;23;20050;-80
2022/05/31 20:34:23;;;;;;;;;;;16.60;82.20;;;;;;6223602;23;20070;-79
2022/05/31 20:37:06;;;;;;;4.22;2.10;;;16.50;81.20;;;;;;6196083;23;19899;-80
2022/05/31 20:39:33;;;;;;;6.35;2.67;;;16.50;80.30;;;;;;6222657;23;20004;-80
2022/05/31 20:42:00;;;;;;;7.93;3.05;;;16.60;81.00;;;;;;6222228;23;20001;-80
2022/05/31 20:44:30;;;;;;;4.28;2.35;;;16.50;80.90;;;;;;6222866;23;20005;-80
2022/05/31 20:46:56;;;;;;;4.55;2.40;;;16.50;80.70;;;;;;6221156;23;20247;-80
2022/05/31 20:49:24;;;;;;;6.75;2.75;;;16.50;80.20;;;;;;6222542;23;20012;-80
2022/05/31 20:51:50;;;;;;;5.13;2.38;;;16.60;81.50;;;;;;6222333;23;20282;-79
2022/05/31 20:58:04;;;;;;;5.55;2.67;;;16.60;81.50;;;;;;6222540;22;20190;-79
2022/05/31 21:00:44;;;;;;;4.93;2.80;;;16.60;81.10;;;;;;6194802;23;20064;-81
2022/05/31 21:03:43;;;;;;;5.18;2.70;;;16.60;82.00;;;;;;6201437;23;20077;-79
2022/05/31 21:06:40;;;;;;;4.95;2.30;;;16.50;81.50;;;;;;6196328;23;20283;-77
2022/05/31 21:09:28;;;;;;;6.40;3.20;;;16.50;81.80;;;;;;6223812;23;20000;-78
2022/05/31 21:16:07;;;;;;;8.82;2.58;;;16.30;82.20;;;;;;6071987;23;20030;-79
2022/05/31 21:18:33;;;;;;;4.57;2.60;;;16.20;82.40;;;;;;6072574;23;20058;-78
2022/05/31 21:24:24;;;;;;;5.93;3.08;;;16.30;82.60;;;;;;6072717;23;20041;-79
2022/05/31 21:27:35;;;;;;;7.90;2.80;;;16.30;84.30;;;;;;6049465;23;20006;-79
2022/05/31 21:30:08;;;;;;;5.35;2.65;;;16.30;83.50;;;;;;6019633;23;20133;-79
2022/05/31 21:32:36;;;;;;;4.97;2.70;;;16.40;82.60;;;;;;6043829;23;20107;-77
2022/05/31 21:35:05;;;;;;;4.47;2.85;;;16.40;83.30;;;;;;6043582;23;20320;-80
2022/05/31 21:38:10;;;;;;;4.07;2.50;;;16.40;82.60;;;;;;6044041;23;20011;-80
2022/05/31 21:41:09;;;;;;;5.93;3.08;;;16.40;83.30;;;;;;5946977;24;20323;-80
2022/05/31 21:43:37;;;;;;;5.00;2.80;;;16.40;83.10;;;;;;5987729;24;20012;-80
2022/05/31 21:46:04;;;;;;;8.38;3.88;;;16.40;82.40;;;;;;5986046;23;20013;-79
2022/05/31 21:51:24;;;;;;;4.05;2.13;;;16.50;82.10;;;;;;6015193;23;20014;-80
2022/05/31 21:53:50;;;;;;;6.78;2.42;;;16.60;81.30;;;;;;6017405;23;20008;-80
2022/05/31 21:56:22;;;;;;;4.68;1.98;;;16.60;81.40;;;;;;6018667;23;20057;-78
2022/05/31 21:58:51;;;;;;;4.10;2.00;;;16.70;80.90;;;;;;5994979;23;20084;-78
2022/05/31 22:01:46;;;;;;;3.63;1.90;;;16.70;80.90;;;;;;6017757;23;20031;-83